Time;durP1;ratioP1;P1;durP2;ratioP2;P2;SDS_P1;SDS_P2;PMS_P1;PMS_P2;Temp;Humidity;BMP_temperature;BMP_pressure;BME280_temperature;BME280_humidity;BME280_pressure;Samples;Min_cycle;Max_cycle;Signal;HPM_P1;HPM_P2
2024/02/21 00:00:55;;;;;;;17.75;11.10;;;10.20;99.90;;;;;;5078137;28;20038;-86
2024/02/21 00:03:21;;;;;;;18.85;10.38;;;10.20;99.90;;;;;;5077250;28;20032;-85
2024/02/21 00:05:47;;;;;;;19.33;10.18;;;10.20;99.90;;;;;;5077726;28;20039;-86
2024/02/21 00:08:12;;;;;;;15.75;10.73;;;10.20;99.90;;;;;;5060889;28;20381;-85
2024/02/21 00:10:38;;;;;;;16.70;10.27;;;10.20;99.90;;;;;;5077870;28;20028;-84
2024/02/21 00:13:04;;;;;;;21.35;11.48;;;10.20;99.90;;;;;;5060292;28;20468;-86
2024/02/21 00:15:32;;;;;;;20.02;10.27;;;10.20;99.90;;;;;;5077050;28;20024;-86
2024/02/21 00:18:01;;;;;;;19.95;9.90;;;10.20;99.90;;;;;;5094794;28;20028;-85
2024/02/21 00:20:27;;;;;;;14.65;10.20;;;10.20;99.90;;;;;;5077076;28;20464;-85
2024/02/21 00:22:52;;;;;;;17.65;10.57;;;10.20;99.90;;;;;;5059746;28;20127;-84
2024/02/21 00:25:18;;;;;;;18.70;10.43;;;10.20;99.90;;;;;;5060034;28;20401;-84
2024/02/21 00:27:43;;;;;;;18.10;10.07;;;10.30;99.90;;;;;;5076945;28;20031;-85
2024/02/21 00:30:10;;;;;;;18.02;9.50;;;10.30;99.90;;;;;;5076822;28;20059;-85
2024/02/21 00:32:36;;;;;;;18.05;9.95;;;10.30;99.90;;;;;;5060002;28;20047;-85
2024/02/21 00:35:02;;;;;;;21.15;10.18;;;10.30;99.90;;;;;;5060323;28;20408;-85
2024/02/21 00:37:31;;;;;;;19.20;10.60;;;10.30;99.90;;;;;;5059933;28;20033;-85
2024/02/21 00:40:00;;;;;;;17.13;9.98;;;10.30;99.90;;;;;;5076641;28;20478;-84
2024/02/21 00:42:25;;;;;;;22.15;10.55;;;10.30;99.90;;;;;;5076877;28;20032;-86
2024/02/21 00:44:51;;;;;;;20.58;10.70;;;10.30;99.90;;;;;;5059765;28;20486;-86
2024/02/21 00:47:17;;;;;;;16.60;10.35;;;10.30;99.90;;;;;;5076380;28;20035;-86
2024/02/21 00:49:42;;;;;;;20.15;11.20;;;10.30;99.90;;;;;;5076645;28;20065;-85
2024/02/21 00:52:08;;;;;;;19.98;9.70;;;10.30;99.90;;;;;;5059116;28;20460;-86
2024/02/21 00:54:34;;;;;;;17.80;10.23;;;10.20;99.90;;;;;;5076550;28;20035;-85
2024/02/21 00:56:59;;;;;;;17.25;9.43;;;10.30;99.90;;;;;;5076359;28;20028;-85
2024/02/21 00:59:25;;;;;;;12.82;9.40;;;10.30;99.90;;;;;;5077004;28;20472;-85
2024/02/21 01:01:50;;;;;;;18.15;10.35;;;10.30;99.90;;;;;;5096044;28;20032;-86
2024/02/21 01:04:16;;;;;;;18.98;10.63;;;10.30;99.90;;;;;;5066938;28;20054;-86
2024/02/21 01:06:44;;;;;;;16.48;9.20;;;10.20;99.90;;;;;;5100999;28;20062;-85
2024/02/21 01:09:10;;;;;;;15.32;9.20;;;10.30;99.90;;;;;;5084366;28;20099;-83
2024/02/21 01:11:39;;;;;;;16.35;9.30;;;10.30;99.90;;;;;;5083968;28;20028;-83
2024/02/21 01:14:04;;;;;;;16.52;9.07;;;10.30;99.90;;;;;;5077306;28;20483;-84
2024/02/21 01:16:30;;;;;;;19.45;10.32;;;10.30;99.90;;;;;;5059783;28;20024;-86
2024/02/21 01:18:55;;;;;;;18.17;9.57;;;10.30;99.90;;;;;;5059642;28;20031;-83
2024/02/21 01:21:21;;;;;;;14.93;8.48;;;10.30;99.90;;;;;;5059400;28;20380;-85
2024/02/21 01:23:47;;;;;;;18.13;9.82;;;10.30;99.90;;;;;;5072650;28;20091;-86
2024/02/21 01:26:13;;;;;;;15.30;9.02;;;10.30;99.90;;;;;;5056342;28;20025;-85
2024/02/21 01:28:40;;;;;;;15.77;9.40;;;10.30;99.90;;;;;;5072768;28;20094;-82
2024/02/21 01:31:05;;;;;;;16.85;9.50;;;10.30;99.90;;;;;;5072629;28;20545;-83
2024/02/21 01:33:34;;;;;;;16.38;9.13;;;10.30;99.90;;;;;;5073998;28;20032;-85
2024/02/21 01:36:02;;;;;;;17.05;9.68;;;10.30;99.90;;;;;;5056091;28;20028;-85
2024/02/21 01:38:28;;;;;;;17.95;10.25;;;10.30;99.90;;;;;;5072589;28;20480;-85
2024/02/21 01:40:54;;;;;;;17.20;9.50;;;10.30;99.90;;;;;;5072386;28;20048;-84
2024/02/21 01:43:20;;;;;;;13.93;8.68;;;10.30;99.90;;;;;;5055791;28;20090;-85
2024/02/21 01:45:54;;;;;;;20.65;9.75;;;10.20;99.90;;;;;;5072413;28;20028;-85
2024/02/21 01:48:22;;;;;;;15.70;9.40;;;10.30;99.90;;;;;;5072111;28;20456;-85
2024/02/21 01:50:50;;;;;;;19.08;9.57;;;10.30;99.90;;;;;;5072364;28;20067;-85
2024/02/21 01:53:29;;;;;;;16.15;10.05;;;10.30;99.90;;;;;;5072689;28;20040;-85
2024/02/21 01:55:55;;;;;;;15.15;9.70;;;10.30;99.90;;;;;;5073514;28;20024;-84
2024/02/21 01:58:21;;;;;;;15.93;8.85;;;10.30;99.90;;;;;;5056103;28;20025;-85
2024/02/21 02:00:48;;;;;;;14.45;9.23;;;10.30;99.90;;;;;;5073479;28;20025;-84
2024/02/21 02:03:16;;;;;;;14.00;8.40;;;10.40;99.90;;;;;;5076196;28;20028;-85
2024/02/21 02:05:50;;;;;;;16.00;8.60;;;10.40;99.90;;;;;;5080766;28;20476;-85
2024/02/21 02:08:18;;;;;;;16.08;9.63;;;10.30;99.90;;;;;;5080761;28;20105;-85
2024/02/21 02:10:45;;;;;;;17.83;9.45;;;10.30;99.90;;;;;;5078116;28;20468;-82
2024/02/21 02:13:11;;;;;;;14.30;8.70;;;10.30;99.90;;;;;;5077021;28;20349;-85
2024/02/21 02:15:46;;;;;;;16.10;9.15;;;10.30;99.90;;;;;;5059900;28;20115;-85
2024/02/21 02:18:12;;;;;;;16.88;8.55;;;10.40;99.90;;;;;;5077605;28;20048;-85
2024/02/21 02:20:38;;;;;;;17.10;9.70;;;10.30;99.90;;;;;;5076637;28;20032;-85
2024/02/21 02:23:32;;;;;;;16.52;9.73;;;10.30;99.90;;;;;;5061289;28;20035;-85
2024/02/21 02:25:58;;;;;;;18.67;9.88;;;10.30;99.90;;;;;;5078589;28;20066;-84
2024/02/21 02:28:24;;;;;;;22.27;10.20;;;10.30;99.90;;;;;;5097267;28;20048;-86
2024/02/21 02:30:50;;;;;;;17.17;10.52;;;10.30;99.90;;;;;;5062579;28;20032;-85
2024/02/21 02:33:18;;;;;;;19.67;10.27;;;10.30;99.90;;;;;;5079858;28;20043;-84
2024/02/21 02:35:44;;;;;;;15.20;9.13;;;10.30;99.90;;;;;;5084814;28;20078;-84
2024/02/21 02:38:11;;;;;;;14.93;9.07;;;10.30;99.90;;;;;;5086420;28;20008;-83
2024/02/21 02:40:38;;;;;;;17.83;9.35;;;10.30;99.90;;;;;;5103157;28;20032;-84
2024/02/21 02:43:04;;;;;;;15.57;8.60;;;10.30;99.90;;;;;;5086482;28;20023;-85
2024/02/21 02:45:31;;;;;;;15.65;9.32;;;10.30;99.90;;;;;;5103178;28;20042;-83
2024/02/21 02:48:00;;;;;;;17.27;9.82;;;10.30;99.90;;;;;;5068703;28;20450;-85
2024/02/21 02:50:30;;;;;;;17.80;9.77;;;10.30;99.90;;;;;;5079134;28;20503;-85
2024/02/21 02:52:55;;;;;;;14.10;8.77;;;10.30;99.90;;;;;;5079092;28;20038;-84
2024/02/21 02:55:21;;;;;;;16.42;9.43;;;10.30;99.90;;;;;;5062025;28;20028;-84
2024/02/21 02:57:47;;;;;;;17.95;9.65;;;10.30;99.90;;;;;;5062100;28;20020;-84
2024/02/21 03:00:14;;;;;;;14.55;9.13;;;10.20;99.90;;;;;;5061785;28;20028;-86
2024/02/21 03:02:41;;;;;;;20.50;10.02;;;10.30;99.90;;;;;;5062055;28;20020;-84
2024/02/21 03:05:18;;;;;;;19.75;10.05;;;10.30;99.90;;;;;;5096472;28;20107;-86
2024/02/21 03:07:44;;;;;;;15.43;8.68;;;10.30;99.90;;;;;;5078228;28;20020;-86
2024/02/21 03:10:10;;;;;;;14.73;8.98;;;10.30;99.90;;;;;;5061341;28;20094;-86
2024/02/21 03:12:37;;;;;;;17.55;9.18;;;10.30;99.90;;;;;;5077992;28;20361;-86
2024/02/21 03:15:04;;;;;;;14.27;8.45;;;10.30;99.90;;;;;;5077169;28;20039;-86
2024/02/21 03:17:30;;;;;;;18.33;8.90;;;10.30;99.90;;;;;;5078040;28;20377;-85
2024/02/21 03:19:56;;;;;;;16.60;8.65;;;10.30;99.90;;;;;;5096177;28;20028;-85
2024/02/21 03:22:22;;;;;;;17.23;8.63;;;10.30;99.90;;;;;;5061403;28;20032;-85
2024/02/21 03:24:48;;;;;;;18.70;8.90;;;10.30;99.90;;;;;;5077282;28;20085;-85
2024/02/21 03:27:13;;;;;;;17.20;8.43;;;10.30;99.90;;;;;;5095535;28;20028;-86
2024/02/21 03:29:39;;;;;;;14.18;7.18;;;10.20;99.90;;;;;;5059476;28;20032;-86
2024/02/21 03:32:05;;;;;;;13.30;7.50;;;10.20;99.90;;;;;;5077543;28;20150;-86
2024/02/21 03:34:30;;;;;;;14.10;7.45;;;10.30;99.90;;;;;;5060819;28;20024;-85
2024/02/21 03:36:56;;;;;;;15.85;8.13;;;10.30;99.90;;;;;;5060630;28;20024;-85
2024/02/21 03:39:22;;;;;;;13.55;7.22;;;10.20;99.90;;;;;;5060641;28;20459;-86
2024/02/21 03:41:48;;;;;;;13.30;7.40;;;10.20;99.90;;;;;;5077384;28;20027;-85
2024/02/21 03:44:14;;;;;;;12.05;6.40;;;10.30;99.90;;;;;;5060583;28;20379;-85
2024/02/21 03:46:41;;;;;;;12.05;6.75;;;10.30;99.90;;;;;;5061047;28;20054;-85
2024/02/21 03:49:07;;;;;;;12.52;6.60;;;10.30;99.90;;;;;;5076955;28;20020;-85
2024/02/21 03:51:32;;;;;;;12.70;6.82;;;10.30;99.90;;;;;;5060655;28;20081;-85
2024/02/21 03:53:58;;;;;;;12.95;6.10;;;10.30;99.90;;;;;;5061330;28;20032;-85
2024/02/21 03:56:24;;;;;;;12.13;6.05;;;10.30;99.90;;;;;;5077580;28;20092;-86
2024/02/21 03:58:50;;;;;;;10.75;6.05;;;10.30;99.90;;;;;;5077709;28;20024;-86
2024/02/21 04:01:16;;;;;;;10.48;5.68;;;10.30;99.90;;;;;;5078124;28;20119;-85
2024/02/21 04:03:45;;;;;;;10.38;5.50;;;10.30;99.90;;;;;;5078218;28;20113;-85
2024/02/21 04:06:13;;;;;;;11.07;6.28;;;10.30;99.90;;;;;;5113697;28;20034;-85
2024/02/21 04:08:39;;;;;;;12.07;6.20;;;10.30;99.90;;;;;;5080753;28;20035;-84
2024/02/21 04:11:05;;;;;;;11.93;5.38;;;10.30;99.90;;;;;;5088188;28;20024;-84
2024/02/21 04:13:30;;;;;;;13.98;6.70;;;10.30;99.90;;;;;;5074284;28;20109;-84
2024/02/21 04:15:56;;;;;;;10.25;5.55;;;10.20;99.90;;;;;;5094688;28;20024;-82
2024/02/21 04:18:22;;;;;;;13.35;6.45;;;10.20;99.90;;;;;;5095012;28;20020;-86
2024/02/21 04:20:48;;;;;;;13.95;7.10;;;10.20;99.90;;;;;;5076502;28;20103;-85
2024/02/21 04:23:14;;;;;;;10.52;5.30;;;10.20;99.90;;;;;;5075728;28;20135;-85
2024/02/21 04:25:40;;;;;;;11.85;5.75;;;10.20;99.90;;;;;;5076618;28;20020;-85
2024/02/21 04:28:05;;;;;;;11.40;5.30;;;10.20;99.90;;;;;;5058954;28;20032;-86
2024/02/21 04:30:31;;;;;;;8.85;5.20;;;10.20;99.90;;;;;;5059256;28;20029;-85
2024/02/21 04:32:57;;;;;;;12.38;5.75;;;10.20;99.90;;;;;;5059520;28;20119;-85
2024/02/21 04:35:25;;;;;;;10.90;5.57;;;10.20;99.90;;;;;;5059272;28;20039;-85
2024/02/21 04:37:51;;;;;;;8.85;5.10;;;10.20;99.90;;;;;;5076288;28;20024;-86
2024/02/21 04:40:17;;;;;;;10.48;5.25;;;10.20;99.90;;;;;;5059380;28;20529;-85
2024/02/21 04:42:43;;;;;;;9.70;5.38;;;10.20;99.90;;;;;;5059377;28;20123;-85
2024/02/21 04:45:09;;;;;;;12.38;6.05;;;10.20;99.90;;;;;;5076052;28;20032;-85
2024/02/21 04:47:35;;;;;;;11.18;5.43;;;10.20;99.90;;;;;;5076055;28;20032;-85
2024/02/21 04:50:03;;;;;;;9.25;5.43;;;10.30;99.90;;;;;;5094133;28;20028;-85
2024/02/21 04:52:29;;;;;;;9.82;5.43;;;10.30;99.90;;;;;;5075934;28;20107;-85
2024/02/21 04:54:56;;;;;;;12.52;5.70;;;10.30;99.90;;;;;;5058869;28;20043;-85
2024/02/21 04:57:21;;;;;;;12.10;5.32;;;10.20;99.90;;;;;;5059175;28;20028;-85
2024/02/21 04:59:50;;;;;;;10.82;5.65;;;10.20;99.90;;;;;;5059039;28;20077;-85
2024/02/21 05:02:15;;;;;;;12.05;6.05;;;10.20;99.90;;;;;;5092769;28;20025;-85
2024/02/21 05:04:43;;;;;;;9.35;6.15;;;10.30;99.90;;;;;;5075869;28;20032;-85
2024/02/21 05:07:10;;;;;;;12.70;6.13;;;10.20;99.90;;;;;;5076064;28;20028;-84
2024/02/21 05:09:36;;;;;;;12.25;6.18;;;10.30;99.90;;;;;;5059382;28;20035;-85
2024/02/21 05:12:02;;;;;;;10.93;5.85;;;10.30;99.90;;;;;;5075628;28;20389;-86
2024/02/21 05:14:31;;;;;;;10.43;6.20;;;10.30;99.90;;;;;;5058879;28;20085;-85
2024/02/21 05:16:56;;;;;;;12.18;7.07;;;10.30;99.90;;;;;;5093363;28;20091;-86
2024/02/21 05:19:22;;;;;;;13.38;6.78;;;10.30;99.90;;;;;;5075321;28;20058;-85
2024/02/21 05:21:48;;;;;;;9.43;6.35;;;10.30;99.90;;;;;;5075195;28;20031;-85
2024/02/21 05:24:13;;;;;;;11.52;7.32;;;10.30;99.90;;;;;;5075241;28;20513;-85
2024/02/21 05:26:39;;;;;;;11.60;7.20;;;10.30;99.90;;;;;;5059187;28;20085;-84
2024/02/21 05:29:05;;;;;;;10.15;6.97;;;10.30;99.90;;;;;;5075621;28;20483;-86
2024/02/21 05:31:52;;;;;;;14.20;7.85;;;10.30;99.90;;;;;;5075770;28;20073;-86
2024/02/21 05:34:18;;;;;;;11.40;6.90;;;10.30;99.90;;;;;;5076315;28;20024;-85
2024/02/21 05:36:52;;;;;;;11.77;7.53;;;10.30;99.90;;;;;;5076806;28;20020;-85
2024/02/21 05:39:25;;;;;;;12.00;7.20;;;10.30;99.90;;;;;;5079625;28;20028;-84
2024/02/21 05:41:52;;;;;;;8.40;6.82;;;10.30;99.90;;;;;;5121832;28;20012;-85
2024/02/21 05:44:18;;;;;;;11.50;7.40;;;10.30;99.90;;;;;;5102573;28;20023;-83
2024/02/21 05:46:44;;;;;;;14.07;7.43;;;10.30;99.90;;;;;;5101480;28;20102;-82
2024/02/21 05:49:09;;;;;;;10.98;7.30;;;10.20;99.90;;;;;;5067618;28;20036;-86
2024/02/21 05:51:35;;;;;;;13.38;7.25;;;10.30;99.90;;;;;;5079601;28;20036;-89
2024/02/21 05:54:04;;;;;;;12.88;7.90;;;10.30;99.90;;;;;;5080307;28;20081;-92
2024/02/21 05:56:29;;;;;;;13.65;7.18;;;10.30;99.90;;;;;;5079716;28;20426;-87
2024/02/21 05:58:55;;;;;;;11.45;7.25;;;10.30;99.90;;;;;;5097393;28;20028;-86
2024/02/21 06:01:21;;;;;;;16.10;8.55;;;10.20;99.90;;;;;;5097017;28;20020;-88
2024/02/21 06:03:47;;;;;;;12.93;7.68;;;10.30;99.90;;;;;;5079952;28;20060;-89
2024/02/21 06:06:14;;;;;;;11.15;7.38;;;10.20;99.90;;;;;;5079784;28;20134;-88
2024/02/21 06:08:40;;;;;;;9.93;7.07;;;10.30;99.90;;;;;;5063429;28;20031;-88
2024/02/21 06:11:09;;;;;;;13.23;6.97;;;10.30;99.90;;;;;;5079505;28;20032;-88
2024/02/21 06:13:39;;;;;;;11.32;6.85;;;10.30;99.90;;;;;;5097292;28;20070;-87
2024/02/21 06:16:06;;;;;;;11.60;7.63;;;10.30;99.90;;;;;;5097377;28;20024;-87
2024/02/21 06:18:31;;;;;;;11.32;6.75;;;10.30;99.90;;;;;;5078808;28;20017;-86
2024/02/21 06:21:02;;;;;;;11.63;7.00;;;10.40;99.90;;;;;;5079209;28;20517;-88
2024/02/21 06:23:28;;;;;;;;;;;10.30;99.90;;;;;;5062624;28;20095;-87
2024/02/21 06:25:56;;;;;;;12.32;6.47;;;10.30;99.90;;;;;;5078521;28;19958;-87
2024/02/21 06:28:23;;;;;;;10.07;6.35;;;10.30;99.90;;;;;;5062152;28;20033;-88
2024/02/21 06:30:48;;;;;;;10.50;6.45;;;10.30;99.90;;;;;;5078712;28;20016;-87
2024/02/21 06:33:14;;;;;;;13.90;6.50;;;10.30;99.90;;;;;;5078667;28;20073;-87
2024/02/21 06:35:42;;;;;;;10.43;6.43;;;10.30;99.90;;;;;;5079001;28;20016;-87
2024/02/21 06:38:08;;;;;;;9.27;6.07;;;10.30;99.90;;;;;;5062830;28;20020;-88
2024/02/21 06:40:38;;;;;;;10.55;6.07;;;10.30;99.90;;;;;;5079060;28;20456;-88
2024/02/21 06:43:07;;;;;;;12.55;6.35;;;10.30;99.90;;;;;;5079986;28;20028;-88
2024/02/21 06:45:32;;;;;;;12.55;5.95;;;10.30;99.90;;;;;;5079904;28;20557;-87
2024/02/21 06:48:06;;;;;;;10.50;5.85;;;10.30;99.90;;;;;;5066258;28;20063;-88
2024/02/21 06:50:37;;;;;;;13.95;5.93;;;10.30;99.90;;;;;;5064645;28;20122;-90
2024/02/21 06:53:03;;;;;;;;;;;10.30;99.90;;;;;;5064060;28;20088;-86
2024/02/21 06:55:29;;;;;;;12.10;6.07;;;10.30;99.90;;;;;;5079923;28;20343;-87
2024/02/21 06:57:54;;;;;;;16.08;6.72;;;10.30;99.90;;;;;;5079438;28;20464;-87
2024/02/21 07:00:20;;;;;;;15.10;7.10;;;10.30;99.90;;;;;;5079442;28;20024;-88
2024/02/21 07:02:47;;;;;;;11.55;7.10;;;10.30;99.90;;;;;;5079366;28;20039;-87
2024/02/21 07:05:13;;;;;;;11.93;7.60;;;10.30;99.90;;;;;;5062841;28;20051;-87
2024/02/21 07:07:41;;;;;;;11.25;6.60;;;10.20;99.90;;;;;;5079736;28;20020;-87
2024/02/21 07:10:07;;;;;;;11.88;6.60;;;10.20;99.90;;;;;;5067999;28;20051;-87
2024/02/21 07:12:34;;;;;;;17.27;7.45;;;10.20;99.90;;;;;;5095194;28;20023;-87
2024/02/21 07:15:00;;;;;;;12.23;6.93;;;10.20;99.90;;;;;;5103292;28;20023;-86
2024/02/21 07:17:26;;;;;;;13.13;6.43;;;10.20;99.90;;;;;;5102611;28;20032;-88
2024/02/21 07:19:52;;;;;;;13.50;6.45;;;10.20;99.90;;;;;;5085401;28;20380;-87
2024/02/21 07:22:20;;;;;;;11.57;6.32;;;10.20;99.90;;;;;;5062187;28;20102;-87
2024/02/21 07:24:49;;;;;;;16.50;7.10;;;10.30;99.90;;;;;;5078271;28;20129;-87
2024/02/21 07:27:18;;;;;;;12.70;6.30;;;10.20;99.90;;;;;;5077511;28;20047;-88
2024/02/21 07:29:49;;;;;;;11.88;6.72;;;10.30;99.90;;;;;;5077720;28;20024;-87
2024/02/21 07:32:18;;;;;;;11.20;6.70;;;10.30;99.90;;;;;;5077735;28;20017;-87
2024/02/21 07:34:43;;;;;;;10.57;6.25;;;10.30;99.90;;;;;;5077282;28;20024;-87
2024/02/21 07:37:09;;;;;;;11.95;6.65;;;10.30;99.90;;;;;;5077719;28;20062;-88
2024/02/21 07:39:38;;;;;;;11.57;6.20;;;10.30;99.90;;;;;;5077104;28;20050;-87
2024/02/21 07:42:06;;;;;;;10.23;6.05;;;10.30;99.90;;;;;;5077939;28;20093;-87
2024/02/21 07:44:35;;;;;;;14.73;7.40;;;10.30;99.90;;;;;;5078651;28;20024;-87
2024/02/21 07:47:01;;;;;;;12.00;6.90;;;10.20;99.90;;;;;;5077154;28;20057;-87
2024/02/21 07:49:27;;;;;;;10.82;6.38;;;10.20;99.90;;;;;;5077288;28;20024;-87
2024/02/21 07:51:56;;;;;;;10.63;6.72;;;10.20;99.90;;;;;;5095539;28;20028;-87
2024/02/21 07:54:24;;;;;;;10.82;5.72;;;10.20;99.90;;;;;;5077143;28;20076;-87
2024/02/21 07:56:50;;;;;;;13.70;6.75;;;10.20;99.90;;;;;;5060945;28;20472;-88
2024/02/21 07:59:16;;;;;;;10.32;5.75;;;10.30;99.90;;;;;;5060684;28;20080;-87
2024/02/21 08:01:44;;;;;;;10.63;6.32;;;10.30;99.90;;;;;;5076857;28;20711;-87
2024/02/21 08:04:10;;;;;;;12.95;7.15;;;10.30;99.90;;;;;;5077211;28;20024;-88
2024/02/21 08:06:37;;;;;;;13.00;6.82;;;10.30;99.90;;;;;;5077578;28;20040;-87
2024/02/21 08:09:03;;;;;;;10.23;6.35;;;10.30;99.90;;;;;;5060847;28;20020;-87
2024/02/21 08:11:28;;;;;;;11.35;6.72;;;10.40;99.90;;;;;;5095394;28;20024;-87
2024/02/21 08:13:57;;;;;;;12.65;7.00;;;10.40;99.90;;;;;;5076988;28;20123;-88
2024/02/21 08:16:29;;;;;;;11.50;6.50;;;10.40;99.90;;;;;;5060796;28;20052;-87
2024/02/21 08:18:55;;;;;;;12.05;6.90;;;10.40;99.90;;;;;;5077341;28;20032;-87
2024/02/21 08:21:21;;;;;;;14.07;7.00;;;10.40;99.90;;;;;;5060470;28;20028;-87
2024/02/21 08:23:55;;;;;;;11.35;6.22;;;10.40;99.90;;;;;;5076486;28;20057;-88
2024/02/21 08:26:21;;;;;;;10.25;6.63;;;10.40;99.90;;;;;;5094864;28;20028;-87
2024/02/21 08:28:53;;;;;;;13.45;6.70;;;10.40;99.90;;;;;;5076806;28;20058;-88
2024/02/21 08:31:19;;;;;;;12.48;7.57;;;10.40;99.90;;;;;;5077190;28;20028;-88
2024/02/21 08:33:45;;;;;;;13.55;7.90;;;10.40;99.90;;;;;;5060775;28;20036;-88
2024/02/21 08:36:19;;;;;;;12.82;7.35;;;10.40;99.90;;;;;;5077272;28;20107;-88
2024/02/21 08:38:47;;;;;;;15.52;7.57;;;10.50;99.90;;;;;;5095591;28;20483;-87
2024/02/21 08:41:14;;;;;;;13.85;7.47;;;10.50;99.90;;;;;;5089406;28;20032;-88
2024/02/21 08:43:44;;;;;;;9.30;7.07;;;10.50;99.90;;;;;;5100308;28;20024;-87
2024/02/21 08:46:10;;;;;;;12.27;7.20;;;10.50;99.90;;;;;;5100432;28;20032;-87
2024/02/21 08:48:36;;;;;;;13.52;7.03;;;10.50;99.90;;;;;;5100043;28;20100;-87
2024/02/21 08:51:01;;;;;;;15.70;7.63;;;10.50;99.90;;;;;;5101552;28;20103;-88
2024/02/21 08:53:30;;;;;;;11.57;7.15;;;10.50;99.90;;;;;;5077256;28;20039;-88
2024/02/21 08:55:56;;;;;;;11.68;6.95;;;10.50;99.90;;;;;;5076554;28;20020;-88
2024/02/21 08:58:23;;;;;;;12.73;7.55;;;10.50;99.90;;;;;;5076475;28;20016;-88
2024/02/21 09:00:52;;;;;;;11.82;6.88;;;10.50;99.90;;;;;;5060773;28;20031;-88
2024/02/21 09:03:20;;;;;;;12.30;7.05;;;10.60;99.90;;;;;;5076761;28;20036;-87
2024/02/21 09:05:49;;;;;;;11.27;6.93;;;10.60;99.90;;;;;;5076294;28;20045;-89
2024/02/21 09:08:14;;;;;;;11.65;6.78;;;10.60;99.90;;;;;;5094678;28;20051;-87
2024/02/21 09:10:50;;;;;;;9.95;6.93;;;10.60;99.90;;;;;;5076140;28;20024;-88
2024/02/21 09:13:16;;;;;;;11.02;7.30;;;10.60;99.90;;;;;;5077420;28;20040;-88
2024/02/21 09:15:47;;;;;;;13.45;6.82;;;10.60;99.90;;;;;;5076561;28;20387;-86
2024/02/21 09:18:15;;;;;;;11.98;7.18;;;10.60;99.90;;;;;;5076537;28;20490;-86
2024/02/21 09:20:40;;;;;;;10.38;6.40;;;10.70;99.90;;;;;;5076458;28;20358;-87
2024/02/21 09:23:06;;;;;;;12.27;6.43;;;10.70;99.90;;;;;;5076446;28;20032;-86
2024/02/21 09:25:37;;;;;;;11.95;6.35;;;10.70;99.90;;;;;;5076000;28;20055;-86
2024/02/21 09:28:05;;;;;;;11.07;6.40;;;10.70;99.90;;;;;;5076001;28;20030;-86
2024/02/21 09:30:32;;;;;;;12.50;6.75;;;10.70;99.90;;;;;;5075829;28;20375;-86
2024/02/21 09:33:01;;;;;;;11.55;6.38;;;10.70;99.90;;;;;;5076272;28;20122;-87
2024/02/21 09:35:27;;;;;;;9.90;6.05;;;10.70;99.90;;;;;;5076363;28;20028;-87
2024/02/21 09:37:56;;;;;;;13.02;5.93;;;10.70;99.90;;;;;;5093970;28;20016;-88
2024/02/21 09:40:22;;;;;;;8.18;5.55;;;10.80;99.90;;;;;;5059467;28;20024;-89
2024/02/21 09:43:03;;;;;;;8.85;5.60;;;10.80;99.90;;;;;;5093862;28;20070;-87
2024/02/21 09:45:32;;;;;;;9.40;6.50;;;10.90;99.90;;;;;;5076143;28;20024;-88
2024/02/21 09:48:31;;;;;;;10.20;6.80;;;10.90;99.90;;;;;;5075839;28;20020;-88
2024/02/21 09:51:00;;;;;;;9.02;5.50;;;10.90;99.90;;;;;;5077261;28;20020;-87
2024/02/21 09:53:33;;;;;;;8.48;5.55;;;10.90;99.90;;;;;;5076443;28;20024;-87
2024/02/21 09:55:59;;;;;;;8.73;6.28;;;10.90;99.90;;;;;;5076394;28;20120;-87
2024/02/21 09:58:29;;;;;;;8.05;5.35;;;10.90;99.90;;;;;;5094030;28;20367;-87
2024/02/21 10:00:54;;;;;;;8.30;5.22;;;10.90;99.90;;;;;;5075730;28;20020;-87
2024/02/21 10:03:23;;;;;;;7.90;5.28;;;10.90;99.90;;;;;;5076035;28;20035;-88
2024/02/21 10:05:51;;;;;;;8.18;5.20;;;10.90;99.90;;;;;;5059638;28;20130;-87
2024/02/21 10:08:22;;;;;;;8.10;5.32;;;10.90;99.90;;;;;;5076299;28;20029;-87
2024/02/21 10:10:50;;;;;;;8.20;5.20;;;11.00;99.90;;;;;;5078030;28;20116;-87
2024/02/21 10:13:27;;;;;;;5.90;4.88;;;11.00;99.90;;;;;;5094058;28;20028;-88
2024/02/21 10:16:07;;;;;;;10.25;5.45;;;11.00;99.90;;;;;;5116947;28;20012;-83
2024/02/21 10:18:34;;;;;;;7.93;5.07;;;11.10;99.90;;;;;;5098561;28;20020;-85
2024/02/21 10:21:04;;;;;;;6.65;4.90;;;11.10;99.90;;;;;;5077453;28;20020;-87
2024/02/21 10:23:44;;;;;;;8.32;5.25;;;11.20;99.90;;;;;;5060471;28;20144;-85
2024/02/21 10:26:13;;;;;;;9.73;5.30;;;11.20;99.90;;;;;;5063297;28;20085;-87
2024/02/21 10:28:42;;;;;;;8.90;5.88;;;11.20;99.90;;;;;;5097213;28;20113;-87
2024/02/21 10:31:17;;;;;;;6.80;5.15;;;11.20;99.90;;;;;;5079346;28;20035;-87
2024/02/21 10:33:43;;;;;;;7.88;4.82;;;11.10;99.90;;;;;;5079676;28;20384;-87
2024/02/21 10:36:12;;;;;;;7.47;4.63;;;11.10;99.90;;;;;;5079233;28;20028;-87
2024/02/21 10:38:41;;;;;;;5.47;3.83;;;11.10;99.90;;;;;;5079519;28;20490;-87
2024/02/21 10:41:09;;;;;;;7.60;4.47;;;11.10;99.90;;;;;;5079626;28;20028;-86
2024/02/21 10:43:46;;;;;;;5.72;4.32;;;11.10;99.90;;;;;;5079976;28;20032;-87
2024/02/21 10:46:12;;;;;;;6.03;4.45;;;11.10;99.90;;;;;;5079407;28;20054;-87
2024/02/21 10:48:45;;;;;;;7.47;4.20;;;11.10;99.90;;;;;;5079602;28;20024;-87
2024/02/21 10:51:24;;;;;;;5.32;4.00;;;11.10;99.90;;;;;;5078901;28;20425;-87
2024/02/21 10:53:53;;;;;;;6.40;4.30;;;11.00;99.90;;;;;;5078659;28;20028;-88
2024/02/21 10:56:37;;;;;;;6.80;4.40;;;11.00;99.90;;;;;;5080236;28;20044;-87
2024/02/21 10:59:13;;;;;;;5.18;4.47;;;11.00;99.90;;;;;;5098199;28;20413;-87
2024/02/21 11:01:39;;;;;;;5.80;4.35;;;11.00;99.90;;;;;;5078437;28;20024;-87
2024/02/21 11:04:07;;;;;;;6.65;4.72;;;11.00;99.90;;;;;;5078323;28;20097;-87
2024/02/21 11:06:42;;;;;;;7.90;5.20;;;11.00;99.90;;;;;;5078902;28;20084;-87
2024/02/21 11:09:11;;;;;;;6.63;5.15;;;11.00;99.90;;;;;;5078772;28;20035;-88
2024/02/21 11:11:45;;;;;;;8.02;5.22;;;11.00;99.90;;;;;;5061646;28;20383;-87
2024/02/21 11:14:32;;;;;;;9.10;5.60;;;11.10;99.90;;;;;;5078985;28;20024;-88
2024/02/21 11:17:26;;;;;;;6.18;4.85;;;11.10;99.90;;;;;;5062205;28;20028;-87
2024/02/21 11:19:52;;;;;;;10.10;5.07;;;11.10;99.90;;;;;;5097281;28;20024;-88
2024/02/21 11:22:31;;;;;;;8.23;5.10;;;11.20;99.90;;;;;;5078242;28;20019;-87
2024/02/21 11:25:12;;;;;;;7.38;4.85;;;11.20;99.90;;;;;;5096523;28;20052;-88
2024/02/21 11:27:40;;;;;;;6.32;4.70;;;11.20;99.90;;;;;;5078333;28;20020;-88
2024/02/21 11:30:06;;;;;;;6.15;4.22;;;11.20;99.90;;;;;;5080045;28;20028;-84
2024/02/21 11:32:38;;;;;;;8.25;4.50;;;11.30;99.90;;;;;;5078434;28;20031;-88
2024/02/21 11:35:10;;;;;;;6.28;4.30;;;11.30;99.90;;;;;;5082533;28;20028;-88
2024/02/21 11:37:42;;;;;;;6.45;4.28;;;11.30;99.90;;;;;;5082133;28;20020;-86
2024/02/21 11:40:20;;;;;;;8.30;4.25;;;11.30;99.90;;;;;;5089296;28;20024;-88
2024/02/21 11:42:51;;;;;;;8.00;4.45;;;11.20;99.90;;;;;;5100015;28;20032;-88
2024/02/21 11:45:35;;;;;;;;;;;;;;;;;;;;;
2024/02/21 11:48:10;;;;;;;8.30;4.63;;;11.30;99.90;;;;;;5119154;28;20023;-88
2024/02/21 11:50:39;;;;;;;5.53;4.43;;;11.30;99.90;;;;;;5101345;28;20052;-89
2024/02/21 11:53:10;;;;;;;7.65;4.85;;;11.30;99.90;;;;;;5115124;28;20016;-86
2024/02/21 11:55:38;;;;;;;9.65;5.68;;;11.20;99.90;;;;;;5089428;28;20032;-86
2024/02/21 11:58:06;;;;;;;9.23;4.97;;;11.30;99.90;;;;;;5082755;28;20024;-87
2024/02/21 12:00:35;;;;;;;6.78;4.70;;;11.20;99.90;;;;;;5078040;28;20020;-87
2024/02/21 12:03:03;;;;;;;7.68;4.50;;;11.20;99.90;;;;;;5076734;28;20028;-87
2024/02/21 12:05:37;;;;;;;8.32;4.75;;;11.20;99.90;;;;;;5094837;28;20060;-86
2024/02/21 12:08:05;;;;;;;8.20;5.20;;;11.20;99.90;;;;;;5076468;28;20548;-86
2024/02/21 12:10:38;;;;;;;7.68;4.32;;;11.10;99.90;;;;;;5077515;28;20024;-87
2024/02/21 12:13:13;;;;;;;5.93;3.97;;;11.20;99.90;;;;;;5077739;28;20028;-88
2024/02/21 12:15:41;;;;;;;6.18;4.43;;;11.10;99.90;;;;;;5076923;28;20031;-87
2024/02/21 12:18:10;;;;;;;7.50;4.28;;;11.20;99.90;;;;;;5077380;28;20065;-89
2024/02/21 12:20:36;;;;;;;6.05;3.83;;;11.20;99.90;;;;;;5077298;28;20020;-88
2024/02/21 12:23:03;;;;;;;6.57;4.20;;;11.20;99.90;;;;;;5076858;28;20016;-88
2024/02/21 12:25:35;;;;;;;7.55;3.70;;;11.20;99.90;;;;;;5077160;28;20052;-88
2024/02/21 12:28:04;;;;;;;7.45;3.70;;;11.30;99.90;;;;;;5076754;28;20016;-88
2024/02/21 12:30:32;;;;;;;7.80;4.20;;;11.30;99.90;;;;;;5094764;28;20024;-88
2024/02/21 12:33:03;;;;;;;6.80;3.90;;;11.40;99.90;;;;;;5060508;28;20093;-88
2024/02/21 12:35:31;;;;;;;7.93;4.38;;;11.50;99.90;;;;;;5077069;28;20024;-88
2024/02/21 12:38:00;;;;;;;6.38;3.70;;;11.50;99.90;;;;;;5076828;28;20020;-88
2024/02/21 12:40:32;;;;;;;6.97;4.22;;;11.70;99.90;;;;;;5076431;28;20028;-87
2024/02/21 12:43:03;;;;;;;7.40;4.15;;;11.70;99.90;;;;;;5094995;28;20070;-88
2024/02/21 12:45:38;;;;;;;8.52;4.13;;;11.70;99.90;;;;;;5077291;28;20028;-88